createdAt,value
2024-04-18T00:01:20.068Z,7.88
2024-04-18T00:04:23.068Z,7.96
2024-04-18T00:07:25.880Z,7.76
2024-04-18T00:10:55.931Z,7.81
2024-04-18T00:14:24.537Z,7.77
2024-04-18T00:17:47.229Z,7.70
2024-04-18T00:20:58.551Z,7.74
2024-04-18T00:24:01.202Z,7.85
2024-04-18T00:27:22.623Z,7.87
2024-04-18T00:30:26.164Z,7.84
2024-04-18T00:33:29.101Z,7.80
2024-04-18T00:36:33.638Z,7.68
2024-04-18T00:39:56.285Z,7.63
2024-04-18T00:43:14.111Z,7.43
2024-04-18T00:46:17.005Z,7.40
2024-04-18T00:49:32.761Z,7.36
2024-04-18T00:52:35.358Z,7.32
2024-04-18T00:55:41.169Z,7.31
2024-04-18T00:58:51.436Z,7.34
2024-04-18T01:01:57.043Z,7.35
2024-04-18T01:05:19.948Z,7.35
2024-04-18T01:08:23.131Z,7.40
2024-04-18T01:11:32.844Z,7.34
2024-04-18T01:14:35.670Z,7.28
2024-04-18T01:17:39.132Z,7.27
2024-04-18T01:20:41.764Z,7.46
2024-04-18T01:23:45.944Z,7.36
2024-04-18T01:26:48.535Z,7.37
2024-04-18T01:29:51.127Z,7.32
2024-04-18T01:33:12.661Z,7.33
2024-04-18T01:36:15.449Z,7.38
2024-04-18T01:39:26.439Z,7.33
2024-04-18T01:42:39.468Z,7.46
2024-04-18T01:45:59.431Z,7.24
2024-04-18T01:49:02.112Z,7.28
2024-04-18T01:52:23.200Z,7.35
2024-04-18T01:55:25.891Z,7.35
2024-04-18T01:58:44.425Z,7.44
2024-04-18T02:01:47.090Z,7.41
2024-04-18T02:04:49.832Z,7.28
2024-04-18T02:08:12.434Z,7.32
2024-04-18T02:11:20.508Z,7.23
2024-04-18T02:14:42.305Z,7.32
2024-04-18T02:17:45.033Z,7.23
2024-04-18T02:20:47.657Z,7.21
2024-04-18T02:23:56.486Z,7.09
2024-04-18T02:26:59.257Z,6.94
2024-04-18T02:30:05.392Z,7.06
2024-04-18T02:33:16.365Z,6.95
2024-04-18T02:36:22.301Z,6.94
2024-04-18T02:39:25.047Z,6.95
2024-04-18T02:42:27.906Z,6.78
2024-04-18T02:45:33.813Z,6.76
2024-04-18T02:48:55.402Z,6.76
2024-04-18T02:52:01.001Z,6.74
2024-04-18T02:55:22.599Z,6.64
2024-04-18T02:58:31.309Z,6.63
2024-04-18T03:01:52.412Z,6.53
2024-04-18T03:04:55.022Z,6.54
2024-04-18T03:08:00.179Z,6.54
2024-04-18T03:11:20.734Z,6.43
2024-04-18T03:14:43.345Z,6.53
2024-04-18T03:17:48.776Z,6.43
2024-04-18T03:21:10.872Z,6.37
2024-04-18T03:24:22.596Z,6.37
2024-04-18T03:27:25.370Z,6.30
2024-04-18T03:30:28.006Z,6.50
2024-04-18T03:33:43.733Z,6.44
2024-04-18T03:36:49.371Z,6.42
2024-04-18T03:40:05.800Z,6.31
2024-04-18T03:43:08.463Z,6.32
2024-04-18T03:46:11.139Z,6.33
2024-04-18T03:49:33.946Z,6.36
2024-04-18T03:52:36.571Z,6.37
2024-04-18T03:55:59.428Z,6.30
2024-04-18T03:59:02.132Z,6.30
2024-04-18T04:02:04.820Z,6.30
2024-04-18T04:05:07.519Z,6.39
2024-04-18T04:08:10.728Z,6.43
2024-04-18T04:11:19.865Z,6.42
2024-04-18T04:14:22.654Z,6.26
2024-04-18T04:17:28.603Z,6.60
2024-04-18T04:20:42.607Z,6.53
2024-04-18T04:23:45.279Z,6.58
2024-04-18T04:26:47.978Z,6.52
2024-04-18T04:29:50.624Z,6.61
2024-04-18T04:32:53.277Z,6.66
2024-04-18T04:36:08.144Z,6.79
2024-04-18T04:39:11.142Z,6.70
2024-04-18T04:42:18.864Z,6.89
2024-04-18T04:45:21.451Z,6.80
2024-04-18T04:48:40.526Z,6.81
2024-04-18T04:51:46.209Z,6.87
2024-04-18T04:55:08.990Z,7.00
2024-04-18T04:58:11.610Z,6.96
2024-04-18T05:01:14.183Z,6.90
2024-04-18T05:04:16.875Z,7.01
2024-04-18T05:07:19.739Z,7.10
2024-04-18T05:10:22.405Z,6.91
2024-04-18T05:13:25.018Z,7.01
2024-04-18T05:16:47.694Z,7.23
2024-04-18T05:19:50.473Z,7.25
2024-04-18T05:23:11.628Z,7.48
2024-04-18T05:26:14.304Z,7.60
2024-04-18T05:29:38.701Z,7.81
2024-04-18T05:32:41.286Z,7.94
2024-04-18T05:35:46.803Z,8.07
2024-04-18T05:38:49.628Z,8.04
2024-04-18T05:41:52.607Z,7.90
2024-04-18T05:45:08.085Z,7.92
2024-04-18T05:48:32.035Z,8.12
2024-04-18T05:51:37.874Z,8.33
2024-04-18T05:54:59.493Z,8.35
2024-04-18T05:58:16.753Z,8.49
2024-04-18T06:01:32.726Z,8.62
2024-04-18T06:04:36.093Z,8.84
2024-04-18T06:07:58.912Z,8.74
2024-04-18T06:11:02.130Z,8.50
2024-04-18T06:14:06.085Z,8.55
2024-04-18T06:17:09.062Z,8.62
2024-04-18T06:20:26.954Z,8.46
2024-04-18T06:23:29.583Z,8.32
2024-04-18T06:26:51.084Z,8.40
2024-04-18T06:29:56.269Z,8.44
2024-04-18T06:32:59.438Z,8.65
2024-04-18T06:36:03.437Z,8.63
2024-04-18T06:39:08.831Z,8.54
2024-04-18T06:42:11.534Z,8.86
2024-04-18T06:45:16.759Z,8.76
2024-04-18T06:48:19.942Z,9.03
2024-04-18T06:51:22.731Z,9.16
2024-04-18T06:54:25.989Z,9.42
2024-04-18T06:57:29.557Z,9.30
2024-04-18T07:00:32.752Z,9.61
2024-04-18T07:03:37.984Z,9.53
2024-04-18T07:07:01.562Z,9.48
2024-04-18T07:10:15.877Z,9.70
2024-04-18T07:13:33.396Z,10.15
2024-04-18T07:16:57.472Z,10.60
2024-04-18T07:20:06.775Z,10.56
2024-04-18T07:23:09.946Z,10.84
2024-04-18T07:26:12.773Z,11.05
2024-04-18T07:29:16.419Z,10.79
2024-04-18T07:32:19.287Z,11.40
2024-04-18T07:35:24.647Z,11.94
2024-04-18T07:38:28.442Z,11.39
2024-04-18T07:41:31.299Z,11.53
2024-04-18T07:44:35.257Z,12.05
2024-04-18T07:47:39.609Z,12.63
2024-04-18T07:50:42.458Z,13.05
2024-04-18T07:53:45.207Z,13.60
2024-04-18T07:56:48.202Z,13.86
2024-04-18T07:59:53.102Z,14.56
2024-04-18T08:02:59.605Z,14.56
2024-04-18T08:06:05.431Z,15.11
2024-04-18T08:09:13.357Z,15.21
2024-04-18T08:12:25.888Z,14.63
2024-04-18T08:18:48.462Z,14.55
2024-04-18T08:21:51.395Z,14.79
2024-04-18T08:24:56.548Z,15.06
2024-04-18T08:27:59.388Z,14.51
2024-04-18T08:31:02.104Z,14.07
2024-04-18T08:34:11.641Z,15.27
2024-04-18T08:37:20.492Z,15.73
2024-04-18T08:40:23.569Z,15.47
2024-04-18T08:43:26.253Z,15.53
2024-04-18T08:46:32.820Z,16.03
2024-04-18T08:49:39.532Z,15.68
2024-04-18T08:52:45.830Z,16.64
2024-04-18T08:55:52.191Z,17.07
2024-04-18T08:58:54.905Z,17.35
2024-04-18T09:01:58.171Z,18.05
2024-04-18T09:05:00.872Z,18.97
2024-04-18T09:08:05.390Z,18.29
2024-04-18T09:11:08.663Z,18.56
2024-04-18T09:14:11.937Z,18.96
2024-04-18T09:17:15.464Z,18.79
2024-04-18T09:20:18.338Z,18.21
2024-04-18T09:23:22.502Z,18.90
2024-04-18T09:26:30.912Z,18.37
2024-04-18T09:29:33.561Z,19.47
2024-04-18T09:32:37.365Z,18.33
2024-04-18T09:35:43.802Z,19.70
2024-04-18T09:38:51.119Z,19.20
2024-04-18T09:42:02.275Z,17.31
2024-04-18T09:45:05.644Z,18.27
2024-04-18T09:48:11.433Z,17.63
2024-04-18T09:51:16.291Z,18.02
2024-04-18T09:54:20.185Z,18.40
2024-04-18T09:57:24.545Z,18.85
2024-04-18T10:00:28.820Z,19.23
2024-04-18T10:03:32.227Z,18.85
2024-04-18T10:06:39.868Z,20.22
2024-04-18T10:09:45.236Z,20.76
2024-04-18T10:12:49.015Z,20.80
2024-04-18T10:15:52.382Z,20.68
2024-04-18T10:19:27.584Z,20.66
2024-04-18T10:22:55.758Z,21.45
2024-04-18T10:26:00.181Z,19.53
2024-04-18T10:29:03.183Z,19.18
2024-04-18T10:32:06.401Z,18.41
2024-04-18T10:35:09.929Z,18.91
2024-04-18T10:38:24.078Z,19.72
2024-04-18T10:41:26.955Z,19.87
2024-04-18T10:44:30.927Z,18.96
2024-04-18T10:47:38.005Z,18.92
2024-04-18T10:50:42.048Z,19.07
2024-04-18T10:53:45.109Z,17.82
2024-04-18T10:56:47.915Z,17.34
2024-04-18T10:59:50.699Z,16.59
2024-04-18T11:02:57.510Z,15.97
2024-04-18T11:06:04.419Z,15.60
2024-04-18T11:09:07.288Z,15.47
2024-04-18T11:12:10.924Z,15.29
2024-04-18T11:15:18.582Z,15.11
2024-04-18T11:18:23.254Z,15.77
2024-04-18T11:21:26.283Z,16.54
2024-04-18T11:24:30.558Z,16.17
2024-04-18T11:27:36.918Z,15.47
2024-04-18T11:30:44.376Z,15.99
2024-04-18T11:33:49.622Z,16.04
2024-04-18T11:36:58.525Z,15.34
2024-04-18T11:40:01.787Z,15.00
2024-04-18T11:43:05.078Z,16.00
2024-04-18T11:46:07.847Z,17.41
2024-04-18T11:49:10.752Z,17.89
2024-04-18T11:52:13.864Z,18.24
2024-04-18T11:55:31.605Z,17.16
2024-04-18T11:58:58.612Z,16.55
2024-04-18T12:02:07.785Z,18.06
2024-04-18T12:05:27.454Z,18.92
2024-04-18T12:08:30.688Z,19.80
2024-04-18T12:11:33.815Z,20.01
2024-04-18T12:14:50.129Z,19.30
2024-04-18T12:18:03.490Z,20.04
2024-04-18T12:21:23.955Z,19.54
2024-04-18T12:24:26.887Z,17.85
2024-04-18T12:27:43.633Z,17.19
2024-04-18T12:31:05.147Z,16.61
2024-04-18T12:34:07.970Z,16.13
2024-04-18T12:37:10.787Z,15.58
2024-04-18T12:40:14.411Z,15.81
2024-04-18T12:43:37.227Z,16.67
2024-04-18T12:47:00.698Z,16.09
2024-04-18T12:50:20.925Z,16.13
2024-04-18T12:53:27.632Z,16.64
2024-04-18T12:56:33.576Z,16.28
2024-04-18T12:59:56.152Z,15.47
2024-04-18T13:03:02.068Z,15.34
2024-04-18T13:06:11.967Z,15.27
2024-04-18T13:09:24.872Z,15.03
2024-04-18T13:12:35.164Z,15.40
2024-04-18T13:19:01.026Z,16.65
2024-04-18T13:22:12.733Z,17.35
2024-04-18T13:25:15.572Z,17.92
2024-04-18T13:28:18.232Z,18.57
2024-04-18T13:31:40.927Z,18.86
2024-04-18T13:34:55.970Z,18.35
2024-04-18T13:38:00.506Z,18.30
2024-04-18T13:41:23.138Z,18.92
2024-04-18T13:44:25.742Z,18.46
2024-04-18T13:47:28.813Z,17.93
2024-04-18T13:50:31.656Z,16.51
2024-04-18T13:53:34.406Z,16.18
2024-04-18T13:56:57.194Z,15.90
2024-04-18T14:00:16.174Z,16.13
2024-04-18T14:03:44.536Z,15.98
2024-04-18T14:06:47.330Z,15.60
2024-04-18T14:09:50.119Z,15.76
2024-04-18T14:13:12.918Z,15.84
2024-04-18T14:16:43.859Z,16.01
2024-04-18T14:20:07.246Z,15.43
2024-04-18T14:23:24.491Z,15.15
2024-04-18T14:26:27.243Z,15.18
2024-04-18T14:29:30.177Z,15.12
2024-04-18T14:32:32.911Z,14.96
2024-04-18T14:35:38.238Z,15.19
2024-04-18T14:38:40.823Z,15.37
2024-04-18T14:41:43.435Z,16.23
2024-04-18T14:44:46.687Z,16.40
2024-04-18T14:47:49.479Z,16.70
2024-04-18T14:51:12.579Z,16.50
2024-04-18T14:54:21.557Z,15.36
2024-04-18T14:57:24.353Z,15.03
2024-04-18T15:00:50.957Z,14.70
2024-04-18T15:03:54.515Z,14.48
2024-04-18T15:06:57.309Z,14.55
2024-04-18T15:10:13.653Z,14.67
2024-04-18T15:13:32.490Z,14.93
2024-04-18T15:16:55.072Z,14.85
2024-04-18T15:19:57.943Z,14.67
2024-04-18T15:23:13.531Z,14.87
2024-04-18T15:26:17.721Z,14.55
2024-04-18T15:29:21.410Z,14.62
2024-04-18T15:32:43.004Z,14.51
2024-04-18T15:35:58.119Z,14.34
2024-04-18T15:39:00.810Z,14.47
2024-04-18T15:42:19.551Z,14.31
2024-04-18T15:45:25.135Z,14.43
2024-04-18T15:48:28.131Z,14.14
2024-04-18T15:51:30.962Z,14.09
2024-04-18T15:54:42.402Z,13.96
2024-04-18T15:57:45.140Z,13.72
2024-04-18T16:00:47.785Z,13.78
2024-04-18T16:04:09.126Z,13.53
2024-04-18T16:07:30.458Z,13.66
2024-04-18T16:10:53.192Z,13.62
2024-04-18T16:14:01.978Z,13.53
2024-04-18T16:17:06.275Z,13.65
2024-04-18T16:20:14.966Z,13.71
2024-04-18T16:23:17.590Z,13.65
2024-04-18T16:26:20.403Z,13.22
2024-04-18T16:29:23.967Z,13.06
2024-04-18T16:32:28.152Z,13.04
2024-04-18T16:35:30.967Z,12.94
2024-04-18T16:38:49.620Z,12.80
2024-04-18T16:41:59.592Z,12.69
2024-04-18T16:45:02.544Z,12.65
2024-04-18T16:48:05.710Z,12.66
2024-04-18T16:51:08.503Z,12.49
2024-04-18T16:54:29.585Z,12.46
2024-04-18T16:57:38.178Z,12.38
2024-04-18T17:01:00.419Z,12.23
2024-04-18T17:04:03.484Z,11.97
2024-04-18T17:07:07.063Z,11.76
2024-04-18T17:10:28.617Z,11.68
2024-04-18T17:13:51.444Z,11.61
2024-04-18T17:16:55.307Z,11.53
2024-04-18T17:19:58.017Z,11.36
2024-04-18T17:23:00.710Z,11.31
2024-04-18T17:26:03.429Z,11.27
2024-04-18T17:29:06.202Z,11.26
2024-04-18T17:32:14.695Z,11.25
2024-04-18T17:35:17.695Z,11.17
2024-04-18T17:38:20.882Z,11.13
2024-04-18T17:41:33.294Z,11.11
2024-04-18T17:44:54.583Z,11.13
2024-04-18T17:48:03.470Z,11.18
2024-04-18T17:51:06.359Z,11.02
2024-04-18T17:54:09.317Z,10.94
2024-04-18T17:57:12.047Z,10.89
2024-04-18T18:00:15.130Z,10.84
2024-04-18T18:03:18.270Z,10.89
2024-04-18T18:06:21.329Z,10.60
2024-04-18T18:09:24.745Z,10.53
2024-04-18T18:12:27.434Z,10.47
2024-04-18T18:15:30.114Z,10.31
2024-04-18T18:18:34.805Z,10.19
2024-04-18T18:21:39.124Z,10.19
2024-04-18T18:24:42.019Z,10.08
2024-04-18T18:27:44.756Z,10.14
2024-04-18T18:31:07.619Z,10.07
2024-04-18T18:34:14.139Z,10.02
2024-04-18T18:37:18.981Z,9.96
2024-04-18T18:40:41.693Z,9.99
2024-04-18T18:43:58.739Z,9.82
2024-04-18T18:47:01.379Z,9.61
2024-04-18T18:50:23.388Z,9.64
2024-04-18T18:53:26.301Z,9.48
2024-04-18T18:56:29.134Z,9.56
2024-04-18T18:59:50.440Z,9.52
2024-04-18T19:02:53.095Z,9.53
2024-04-18T19:06:27.294Z,9.40
2024-04-18T19:09:32.448Z,9.34
2024-04-18T19:12:35.169Z,9.26
2024-04-18T19:15:37.958Z,9.26
2024-04-18T19:18:42.752Z,9.18
2024-04-18T19:21:46.006Z,9.24
2024-04-18T19:24:48.657Z,9.37
2024-04-18T19:27:51.322Z,9.25
2024-04-18T19:30:55.723Z,9.28
2024-04-18T19:33:59.452Z,9.34
2024-04-18T19:37:05.481Z,9.25
2024-04-18T19:40:09.399Z,9.19
2024-04-18T19:43:12.808Z,9.37
2024-04-18T19:46:15.610Z,9.08
2024-04-18T19:49:42.345Z,8.91
2024-04-18T19:52:46.953Z,8.89
2024-04-18T19:55:50.945Z,8.96
2024-04-18T19:58:53.562Z,8.78
2024-04-18T20:01:56.327Z,8.79
2024-04-18T20:04:59.261Z,8.73
2024-04-18T20:08:01.958Z,8.65
2024-04-18T20:11:04.662Z,8.68
2024-04-18T20:14:07.417Z,8.80
2024-04-18T20:17:13.905Z,8.71
2024-04-18T20:20:18.161Z,8.58
2024-04-18T20:23:21.458Z,8.58
2024-04-18T20:26:24.694Z,8.46
2024-04-18T20:29:48.414Z,8.48
2024-04-18T20:32:58.116Z,8.58
2024-04-18T20:36:00.820Z,8.49
2024-04-18T20:39:03.950Z,8.52
2024-04-18T20:42:08.101Z,8.36
2024-04-18T20:45:11.052Z,8.37
2024-04-18T20:48:13.978Z,8.23
2024-04-18T20:51:18.978Z,8.29
2024-04-18T20:54:21.755Z,8.22
2024-04-18T20:57:27.362Z,8.09
2024-04-18T21:00:30.669Z,7.65
2024-04-18T21:03:34.027Z,7.68
2024-04-18T21:06:36.944Z,7.54
2024-04-18T21:09:39.682Z,7.28
2024-04-18T21:12:43.078Z,7.30
2024-04-18T21:15:45.973Z,7.35
2024-04-18T21:18:48.757Z,7.26
2024-04-18T21:21:51.766Z,6.95
2024-04-18T21:24:54.588Z,7.14
2024-04-18T21:27:57.562Z,7.27
2024-04-18T21:31:00.447Z,7.30
2024-04-18T21:34:05.704Z,7.40
2024-04-18T21:37:08.545Z,7.50
2024-04-18T21:40:11.639Z,7.54
2024-04-18T21:43:17.039Z,7.68
2024-04-18T21:46:19.826Z,7.68
2024-04-18T21:49:22.559Z,7.69
2024-04-18T21:52:25.330Z,7.15
2024-04-18T21:55:28.488Z,6.89
2024-04-18T21:58:31.160Z,6.56
2024-04-18T22:01:33.871Z,6.79
2024-04-18T22:04:36.541Z,6.98
2024-04-18T22:07:42.488Z,7.07
2024-04-18T22:10:45.293Z,7.09
2024-04-18T22:13:47.945Z,6.97
2024-04-18T22:17:06.001Z,6.92
2024-04-18T22:20:09.176Z,7.14
2024-04-18T22:23:12.099Z,7.27
2024-04-18T22:26:14.699Z,7.47
2024-04-18T22:29:17.358Z,7.32
2024-04-18T22:32:20.066Z,7.44
2024-04-18T22:35:23.445Z,7.50
2024-04-18T22:38:26.030Z,7.57
2024-04-18T22:41:28.787Z,7.78
2024-04-18T22:44:31.460Z,7.70
2024-04-18T22:47:34.260Z,7.80
2024-04-18T22:50:37.204Z,7.76
2024-04-18T22:53:40.050Z,7.64
2024-04-18T22:56:42.644Z,7.58
2024-04-18T22:59:47.193Z,7.65
2024-04-18T23:02:49.835Z,7.64
2024-04-18T23:06:11.542Z,7.37
2024-04-18T23:09:17.238Z,7.34
2024-04-18T23:12:19.992Z,6.87
2024-04-18T23:15:22.703Z,6.93
2024-04-18T23:18:25.564Z,7.25
2024-04-18T23:21:28.348Z,7.27
2024-04-18T23:24:31.195Z,7.47
2024-04-18T23:27:33.926Z,7.37
2024-04-18T23:30:37.931Z,7.21
2024-04-18T23:33:40.635Z,7.17
2024-04-18T23:36:43.427Z,7.44
2024-04-18T23:39:46.243Z,7.56
2024-04-18T23:42:48.982Z,7.36
2024-04-18T23:45:51.785Z,7.03
2024-04-18T23:48:54.667Z,7.05
2024-04-18T23:51:57.494Z,7.35
2024-04-18T23:55:00.128Z,7.07
2024-04-18T23:58:02.820Z,7.39
